Sweeney Granite Mountains, California Weather observations

Data are for 10 minute period ending at time listed.
 Day   Time   Solar   Ave.   Ave.  Ave.  Vector  Max.   Baro.   Total    
  of    of     Rad.   Air    Rel.  Wind   Wind   Wind  Press.  Precip.   
Year   Day            Temp.  Hum.  Speed  Dir.   Gust                    
2014   (PST)  Kw/m2    F      %     mph   deg.    mph    mb.     in.     
-------------------------------------------------------------------------
 303    1:10   0.00   64.6    16    4.1    52     7.2   872.2    0.00 
 303    1:20   0.00   66.5    15    6.3    49    10.2   872.2    0.00 
 303    1:30   0.00   67.4    14    5.5    55     9.6   872.2    0.00 
 303    1:40   0.00   66.6    15    3.1    47     7.5   872.2    0.00 
 303    1:50   0.00   67.3    14    4.5    34     9.2   872.1    0.00 
 303    2:00   0.00   67.3    14    4.1    34     7.2   872.1    0.00 
 303    2:10   0.00   66.9    14    5.0    24     9.3   872.0    0.00 
 303    2:20   0.00   67.1    14    5.2    30    10.9   871.9    0.00 
 303    2:30   0.00   67.0    14    5.7    48    11.0   871.8    0.00 
 303    2:40   0.00   66.5    14    4.3    45     8.7   871.9    0.00 
 303    2:50   0.00   66.5    14    3.4    53     6.7   871.9    0.00 
 303    3:00   0.00   65.6    15    2.8    12     6.0   871.9    0.00 
 303    3:10   0.00   64.7    15    3.0     7     5.8   871.8    0.00 
 303    3:20   0.00   63.4    16    1.8    65     5.8   871.8    0.00 
 303    3:30   0.00   61.2    18    1.5   289     3.4   871.9    0.00 
 303    3:40   0.00   59.0    19    2.9   291     4.0   871.8    0.00 
 303    3:50   0.00   58.9    19    1.5   320     3.4   871.8    0.00 
 303    4:00   0.00   56.9    21    2.0   289     4.5   871.8    0.00 
 303    4:10   0.00   57.6    20    2.7   299     5.0   871.8    0.00 
 303    4:20   0.00   59.4    19    2.0   316     4.7   871.8    0.00 
 303    4:30   0.00   59.9    18    2.7   319     4.7   871.8    0.00 
 303    4:40   0.00   60.0    18    2.4   314     4.5   871.8    0.00 
 303    4:50   0.00   60.2    18    2.5    28     5.9   871.8    0.00 
 303    5:00   0.00   61.4    17    3.0    72     6.1   871.8    0.00 
 303    5:10   0.00   61.6    17    3.3    70     8.0   871.8    0.00 
 303    5:20   0.00   63.8    15    4.1    64     6.9   871.7    0.00 
 303    5:30   0.00   64.7    14    3.6    70     7.5   871.8    0.00 
 303    5:40   0.00   65.9    14    4.6    64     8.7   871.8    0.00 
 303    5:50   0.00   65.6    14    4.0    64     8.6   871.9    0.00 
 303    6:00   0.00   64.5    15    2.5    95     7.7   872.0    0.00 
 303    6:10   0.00   63.4    15    0.7   270     2.5   872.2    0.00 
 303    6:20   0.01   62.2    16    2.1   277     4.3   872.2    0.00 
 303    6:30   0.04   61.8    17    3.3   283     4.4   872.3    0.00 
 303    6:40   0.04   61.0    18    3.1   288     3.9   872.3    0.00 
 303    6:50   0.03   58.9    19    2.4   294     3.5   872.4    0.00 
 303    7:00   0.10   60.0    18    1.0    28     2.9   872.5    0.00 
 303    7:10   0.14   64.8    16    0.5   340     2.0   872.6    0.00 
 303    7:20   0.14   65.4    16    1.7   294     3.1   872.7    0.00 
 303    7:30   0.22   69.0    14    1.0   142     5.8   872.8    0.00 
 303    7:40   0.28   70.4    13    4.4   100     8.5   872.8    0.00 
 303    7:50   0.27   70.1    13    5.0    99     8.6   872.9    0.00 
 303    8:00   0.33   70.6    13    5.0   111    10.1   872.9    0.00 
 303    8:10   0.39   71.3    12    5.7   103    13.7   873.0    0.00 
 303    8:20   0.40   71.5    12    6.3    99    13.0   873.0    0.00 
 303    8:30   0.43   71.4    13    6.6   105    12.6   873.1    0.00 
 303    8:40   0.46   71.7    13    7.2   102    12.6   873.1    0.00 
 303    8:50   0.50   71.8    13    9.0   102    14.5   873.2    0.00 
 303    9:00   0.55   72.4    13    9.2   105    13.7   873.2    0.00 
 303    9:10   0.61   72.8    13   10.1   105    14.0   873.3    0.00 
 303    9:20   0.47   72.1    13    9.3    95    13.9   873.3    0.00 
 303    9:30   0.48   71.5    13    8.8    98    13.3   873.3    0.00 
 303    9:40   0.64   72.5    13    9.3   102    13.8   873.3    0.00 
 303    9:50   0.56   72.6    13    7.8   100    13.0   873.3    0.00 
 303   10:00   0.41   72.1    13    7.7    96    13.3   873.3    0.00 
 303   10:10   0.29   71.0    14    7.0   101    11.5   873.2    0.00 
 303   10:20   0.38   71.2    14    7.4    99    11.2   873.1    0.00 
 303   10:30   0.38   70.9    14    7.8   104    11.1   873.1    0.00 
 303   10:40   0.59   72.2    14    7.5   110    11.7   873.0    0.00 
 303   10:50   0.74   73.1    15    9.2   113    14.2   873.0    0.00 
 303   11:00   0.72   73.1    15    8.9   111    18.2   873.0    0.00 
 303   11:10   0.51   73.1    15    9.0   117    15.1   872.9    0.00 
 303   11:20   0.47   71.7    16   10.6   127    14.8   872.8    0.00 
 303   11:30   0.67   72.1    16    9.3   127    15.0   872.6    0.00 
 303   11:40   0.61   73.1    17   10.8   124    16.9   872.5    0.00 
 303   11:50   0.50   72.1    17   10.5   125    15.0   872.5    0.00 
 303   12:00   0.85   72.8    17    7.9   119    13.1   872.4    0.00 
 303   12:10   0.86   73.3    16    9.7   129    15.5   872.2    0.00 
 303   12:20   0.74   73.8    16   10.4   119    17.0   872.1    0.00 
 303   12:30   0.40   73.0    16    9.3   118    15.0   872.0    0.00 
 303   12:40   0.40   72.0    17    8.3   122    12.0   871.9    0.00 
 303   12:50   0.42   72.0    17    9.8   116    15.1   871.7    0.00 
 303   13:00   0.77   73.3    16    9.0   110    14.7   871.6    0.00 
 303   13:10   0.60   72.8    18   10.6   126    16.7   871.6    0.00 
 303   13:20   0.41   71.5    18    8.7   129    13.9   871.5    0.00 
 303   13:30   0.50   71.3    18    7.7   113    12.9   871.5    0.00 
 303   13:40   0.78   73.2    17    8.7   118    14.0   871.3    0.00 
 303   13:50   0.30   72.5    17    9.1   110    14.2   871.3    0.00 
 303   14:00   0.50   71.3    17    8.6   117    15.9   871.3    0.00 
 303   14:10   0.64   72.1    16    8.6   127    16.6   871.2    0.00 
 303   14:20   0.55   72.1    15    8.6   122    14.8   871.2    0.00 
 303   14:30   0.43   72.0    16    7.5   117    13.5   871.2    0.00 
 303   14:40   0.40   71.3    15    9.1   119    14.3   871.1    0.00 
 303   14:50   0.23   71.1    15   10.8   125    15.3   871.0    0.00 
 303   15:00   0.33   70.5    15   10.1   117    15.3   870.9    0.00 
 303   15:10   0.46   71.9    14   11.5   123    17.5   870.9    0.00 
 303   15:20   0.20   70.8    15   10.4   120    16.4   871.0    0.00 
 303   15:30   0.12   69.4    16    8.2   119    13.4   871.0    0.00 
 303   15:40   0.10   69.1    16    9.9   123    17.3   870.9    0.00 
 303   15:50   0.08   68.8    16    8.9   123    12.9   870.8    0.00 
 303   16:00   0.08   68.6    16    8.4   120    13.9   870.7    0.00 
 303   16:10   0.08   68.4    17    7.0   116    12.7   870.6    0.00 
 303   16:20   0.05   67.8    18    7.4   126    12.7   870.5    0.00 
 303   16:30   0.03   67.2    18    7.0   123    10.4   870.5    0.00 
 303   16:40   0.01   66.3    19    4.9   115     8.3   870.4    0.00 
 303   16:50   0.00   65.0    20    4.0   100     5.3   870.3    0.00 
 303   17:00   0.00   64.4    21    3.5   107     5.3   870.2    0.00 
 303   17:10   0.00   64.5    22    3.1   101     5.1   870.2    0.00 
 303   17:20   0.00   64.8    22    2.5   106     4.2   870.2    0.00 
 303   17:30   0.00   64.2    22    2.5   100     3.4   870.2    0.00 
 303   17:40   0.00   63.8    22    1.1   113     2.4   870.2    0.00 
 303   17:50   0.00   63.5    22    0.1    94     1.2   870.1    0.00 
 303   18:00   0.00   63.1    22    0.2   234     1.2   870.1    0.00 
 303   18:10   0.00   62.9    22    0.2    35     1.0   870.1    0.00 
 303   18:20   0.00   62.5    22    0.3   175     1.8   870.1    0.00 
 303   18:30   0.00   62.4    22    0.1   150     1.2   870.1    0.00 
 303   18:40   0.00   63.4    22    0.2   304     1.2   870.1    0.00 
 303   18:50   0.00   62.2    22    0.5   132     1.6   870.1    0.00 
 303   19:00   0.00   61.2    23    0.6   144     1.5   870.1    0.00 
 303   19:10   0.00   61.2    22    0.2   162     0.9   870.2    0.00 
 303   19:20   0.00   61.0    22    0.0   137     0.8   870.2    0.00 
 303   19:30   0.00   60.1    22    1.5   113     2.3   870.1    0.00 
 303   19:40   0.00   59.4    23    1.2   106     2.7   870.1    0.00 
 303   19:50   0.00   60.0    23    1.5   122     3.1   870.0    0.00 
 303   20:00   0.00   60.6    22    1.7   132     2.7   870.0    0.00 
 303   20:10   0.00   61.3    22    2.2   128     4.5   869.9    0.00 
 303   20:20   0.00   61.3    22    3.7   122     5.1   869.8    0.00 
 303   20:30   0.00   63.3    21    2.4   128     4.7   870.1    0.00 
 303   20:40   0.00   62.9    22    0.4   114     2.1   870.2    0.00 
 303   20:50   0.00   63.0    22    0.9    81     2.9   870.1    0.00 
 303   21:00   0.00   62.6    22    2.3   209     6.1   870.3    0.00 
 303   21:10   0.00   63.4    22    1.3   182     4.2   870.3    0.00 
 303   21:20   0.00   63.8    22    1.9   108     4.7   870.2    0.00 
 303   21:30   0.00   64.1    22    2.5   116     6.8   870.3    0.00 
 303   21:40   0.00   63.8    22    2.4   121     4.5   870.3    0.00 
 303   21:50   0.00   64.1    22    1.5    82     4.0   870.2    0.00 
 303   22:00   0.00   63.7    23    2.6    90     4.1   870.0    0.00 
 303   22:10   0.00   63.6    23    1.5    75     2.7   869.8    0.00 
 303   22:20   0.00   60.8    25    1.1   289     2.9   869.8    0.00 
 303   22:30   0.00   61.4    25    1.6   285     3.3   869.7    0.00 
 303   22:40   0.00   61.4    26    1.6   246     3.7   869.7    0.00 
 303   22:50   0.00   61.2    26    1.1   233     2.4   869.6    0.00 
 303   23:00   0.00   60.6    27    1.6   308     4.5   869.6    0.00 
 303   23:10   0.00   61.3    26    1.9   186     4.5   869.6    0.00 
 303   23:20   0.00   63.0    25    1.8   254     7.7   869.6    0.00 
 303   23:30   0.00   62.6    26    4.0   248     7.2   869.6    0.00 
 303   23:40   0.00   62.2    26    3.6   246     6.7   869.6    0.00 
 303   23:50   0.00   63.2    26    3.6   261     7.6   869.6    0.00 
 304    0:00   0.00   63.8    26    2.6   264     6.7   869.6    0.00 
 304    0:10   0.00   64.5    26    4.2   247     7.9   869.5    0.00 
 304    0:20   0.00   64.4    26    3.5   258     9.1   869.5    0.00 
 304    0:30   0.00   64.2    27    4.0   253     8.4   869.5    0.00 
 304    0:40   0.00   64.2    27    3.7   235     9.1   869.5    0.00 
 304    0:50   0.00   64.3    27    3.2   245     6.9   869.4    0.00 
 304    1:00   0.00   62.7    29    2.3   263     4.7   869.3    0.00 

Return to Sweeney Granite Mountains graphs page.


Western Regional Climate Center,wrcc@dri.edu